sensor_id;sensor_type;location;lat;lon;timestamp;P1;durP1;ratioP1;P2;durP2;ratioP2
35917;SDS011;22011;59.912;30.300;2023-01-19T00:00:53;7.32;;;4.90;;
35917;SDS011;22011;59.912;30.300;2023-01-19T00:03:20;4.97;;;3.90;;
35917;SDS011;22011;59.912;30.300;2023-01-19T00:05:47;6.13;;;4.13;;
35917;SDS011;22011;59.912;30.300;2023-01-19T00:08:15;5.18;;;4.20;;
35917;SDS011;22011;59.912;30.300;2023-01-19T00:10:43;7.03;;;4.35;;
35917;SDS011;22011;59.912;30.300;2023-01-19T00:13:14;5.40;;;4.22;;
35917;SDS011;22011;59.912;30.300;2023-01-19T00:15:41;4.97;;;3.70;;
35917;SDS011;22011;59.912;30.300;2023-01-19T00:18:09;6.53;;;4.00;;
35917;SDS011;22011;59.912;30.300;2023-01-19T00:20:37;5.22;;;4.07;;
35917;SDS011;22011;59.912;30.300;2023-01-19T00:23:05;5.07;;;3.40;;
35917;SDS011;22011;59.912;30.300;2023-01-19T00:25:33;3.55;;;3.15;;
35917;SDS011;22011;59.912;30.300;2023-01-19T00:28:01;5.93;;;4.07;;
35917;SDS011;22011;59.912;30.300;2023-01-19T00:30:30;4.68;;;3.35;;
35917;SDS011;22011;59.912;30.300;2023-01-19T00:32:57;4.10;;;3.20;;
35917;SDS011;22011;59.912;30.300;2023-01-19T00:35:25;4.90;;;3.13;;
35917;SDS011;22011;59.912;30.300;2023-01-19T00:37:52;4.03;;;2.85;;
35917;SDS011;22011;59.912;30.300;2023-01-19T00:40:20;4.15;;;2.40;;
35917;SDS011;22011;59.912;30.300;2023-01-19T00:42:47;3.25;;;2.22;;
35917;SDS011;22011;59.912;30.300;2023-01-19T00:45:15;2.70;;;2.15;;
35917;SDS011;22011;59.912;30.300;2023-01-19T00:47:46;2.83;;;2.28;;
35917;SDS011;22011;59.912;30.300;2023-01-19T00:50:15;4.82;;;2.53;;
35917;SDS011;22011;59.912;30.300;2023-01-19T00:52:43;2.47;;;1.95;;
35917;SDS011;22011;59.912;30.300;2023-01-19T00:55:12;2.38;;;1.60;;
35917;SDS011;22011;59.912;30.300;2023-01-19T00:57:41;2.10;;;1.70;;
35917;SDS011;22011;59.912;30.300;2023-01-19T01:00:10;2.65;;;1.80;;
35917;SDS011;22011;59.912;30.300;2023-01-19T01:02:38;1.70;;;1.60;;
35917;SDS011;22011;59.912;30.300;2023-01-19T01:05:09;2.58;;;1.90;;
35917;SDS011;22011;59.912;30.300;2023-01-19T01:07:37;2.35;;;1.60;;
35917;SDS011;22011;59.912;30.300;2023-01-19T01:10:06;1.40;;;1.30;;
35917;SDS011;22011;59.912;30.300;2023-01-19T01:12:35;2.17;;;1.50;;
35917;SDS011;22011;59.912;30.300;2023-01-19T01:15:04;1.50;;;1.20;;
35917;SDS011;22011;59.912;30.300;2023-01-19T01:17:33;1.20;;;1.10;;
35917;SDS011;22011;59.912;30.300;2023-01-19T01:20:00;2.22;;;1.23;;
35917;SDS011;22011;59.912;30.300;2023-01-19T01:22:30;2.25;;;1.35;;
35917;SDS011;22011;59.912;30.300;2023-01-19T01:24:58;1.77;;;1.40;;
35917;SDS011;22011;59.912;30.300;2023-01-19T01:27:25;2.13;;;1.45;;
35917;SDS011;22011;59.912;30.300;2023-01-19T01:29:53;2.38;;;1.10;;
35917;SDS011;22011;59.912;30.300;2023-01-19T01:32:20;4.35;;;1.30;;
35917;SDS011;22011;59.912;30.300;2023-01-19T01:34:48;1.55;;;1.10;;
35917;SDS011;22011;59.912;30.300;2023-01-19T01:37:15;1.42;;;1.33;;
35917;SDS011;22011;59.912;30.300;2023-01-19T01:39:44;1.27;;;1.17;;
35917;SDS011;22011;59.912;30.300;2023-01-19T01:42:13;1.92;;;1.10;;
35917;SDS011;22011;59.912;30.300;2023-01-19T01:44:47;2.70;;;1.77;;
35917;SDS011;22011;59.912;30.300;2023-01-19T01:47:17;2.95;;;1.67;;
35917;SDS011;22011;59.912;30.300;2023-01-19T01:49:52;2.10;;;1.50;;
35917;SDS011;22011;59.912;30.300;2023-01-19T01:52:24;1.48;;;1.38;;
35917;SDS011;22011;59.912;30.300;2023-01-19T01:54:56;1.67;;;1.50;;
35917;SDS011;22011;59.912;30.300;2023-01-19T01:57:24;1.65;;;1.30;;
35917;SDS011;22011;59.912;30.300;2023-01-19T01:59:53;2.90;;;1.75;;
35917;SDS011;22011;59.912;30.300;2023-01-19T02:02:23;2.88;;;2.50;;
35917;SDS011;22011;59.912;30.300;2023-01-19T02:05:11;2.90;;;1.80;;
35917;SDS011;22011;59.912;30.300;2023-01-19T02:07:44;3.80;;;2.05;;
35917;SDS011;22011;59.912;30.300;2023-01-19T02:10:33;2.92;;;1.92;;
35917;SDS011;22011;59.912;30.300;2023-01-19T02:13:18;2.70;;;1.70;;
35917;SDS011;22011;59.912;30.300;2023-01-19T02:15:47;2.22;;;1.70;;
35917;SDS011;22011;59.912;30.300;2023-01-19T02:18:16;1.52;;;1.27;;
35917;SDS011;22011;59.912;30.300;2023-01-19T02:20:47;2.03;;;1.50;;
35917;SDS011;22011;59.912;30.300;2023-01-19T02:25:56;1.67;;;1.45;;
35917;SDS011;22011;59.912;30.300;2023-01-19T02:28:25;2.05;;;1.75;;
35917;SDS011;22011;59.912;30.300;2023-01-19T02:30:54;1.60;;;1.30;;
35917;SDS011;22011;59.912;30.300;2023-01-19T02:33:21;2.70;;;1.20;;
35917;SDS011;22011;59.912;30.300;2023-01-19T02:35:49;1.55;;;1.38;;
35917;SDS011;22011;59.912;30.300;2023-01-19T02:38:20;1.83;;;1.48;;
35917;SDS011;22011;59.912;30.300;2023-01-19T02:43:21;1.92;;;1.23;;
35917;SDS011;22011;59.912;30.300;2023-01-19T02:45:51;1.85;;;1.52;;
35917;SDS011;22011;59.912;30.300;2023-01-19T02:48:19;1.38;;;1.17;;
35917;SDS011;22011;59.912;30.300;2023-01-19T02:50:47;1.38;;;1.10;;
35917;SDS011;22011;59.912;30.300;2023-01-19T02:53:25;1.45;;;1.23;;
35917;SDS011;22011;59.912;30.300;2023-01-19T02:56:34;1.75;;;1.30;;
35917;SDS011;22011;59.912;30.300;2023-01-19T02:59:12;2.10;;;1.60;;
35917;SDS011;22011;59.912;30.300;2023-01-19T03:04:38;1.92;;;1.70;;
35917;SDS011;22011;59.912;30.300;2023-01-19T03:07:18;2.55;;;1.80;;
35917;SDS011;22011;59.912;30.300;2023-01-19T03:09:52;2.38;;;2.10;;
35917;SDS011;22011;59.912;30.300;2023-01-19T03:12:29;2.63;;;2.00;;
35917;SDS011;22011;59.912;30.300;2023-01-19T03:15:07;2.80;;;2.28;;
35917;SDS011;22011;59.912;30.300;2023-01-19T03:17:42;2.45;;;1.70;;
35917;SDS011;22011;59.912;30.300;2023-01-19T03:22:42;2.35;;;1.80;;
35917;SDS011;22011;59.912;30.300;2023-01-19T03:25:12;2.58;;;1.67;;
35917;SDS011;22011;59.912;30.300;2023-01-19T03:27:41;3.03;;;1.60;;
35917;SDS011;22011;59.912;30.300;2023-01-19T03:30:11;3.53;;;1.60;;
35917;SDS011;22011;59.912;30.300;2023-01-19T03:32:45;1.95;;;1.50;;
35917;SDS011;22011;59.912;30.300;2023-01-19T03:35:15;3.40;;;1.83;;
35917;SDS011;22011;59.912;30.300;2023-01-19T03:37:45;2.58;;;1.77;;
35917;SDS011;22011;59.912;30.300;2023-01-19T03:40:16;2.67;;;1.40;;
35917;SDS011;22011;59.912;30.300;2023-01-19T03:42:45;1.90;;;1.70;;
35917;SDS011;22011;59.912;30.300;2023-01-19T03:45:16;1.70;;;1.40;;
35917;SDS011;22011;59.912;30.300;2023-01-19T03:47:44;2.22;;;1.65;;
35917;SDS011;22011;59.912;30.300;2023-01-19T03:50:12;2.22;;;1.50;;
35917;SDS011;22011;59.912;30.300;2023-01-19T03:52:49;2.10;;;1.45;;
35917;SDS011;22011;59.912;30.300;2023-01-19T03:55:27;2.85;;;1.90;;
35917;SDS011;22011;59.912;30.300;2023-01-19T03:57:56;3.83;;;1.98;;
35917;SDS011;22011;59.912;30.300;2023-01-19T04:00:23;4.00;;;1.90;;
35917;SDS011;22011;59.912;30.300;2023-01-19T04:02:51;4.80;;;2.58;;
35917;SDS011;22011;59.912;30.300;2023-01-19T04:05:18;4.22;;;2.03;;
35917;SDS011;22011;59.912;30.300;2023-01-19T04:07:46;3.35;;;1.90;;
35917;SDS011;22011;59.912;30.300;2023-01-19T04:10:14;3.90;;;2.20;;
35917;SDS011;22011;59.912;30.300;2023-01-19T04:12:43;4.40;;;1.92;;
35917;SDS011;22011;59.912;30.300;2023-01-19T04:15:12;4.55;;;2.10;;
35917;SDS011;22011;59.912;30.300;2023-01-19T04:17:40;5.28;;;1.92;;
35917;SDS011;22011;59.912;30.300;2023-01-19T04:20:08;2.30;;;1.73;;
35917;SDS011;22011;59.912;30.300;2023-01-19T04:22:36;2.78;;;1.83;;
35917;SDS011;22011;59.912;30.300;2023-01-19T04:25:05;1.98;;;1.67;;
35917;SDS011;22011;59.912;30.300;2023-01-19T04:27:33;3.45;;;1.75;;
35917;SDS011;22011;59.912;30.300;2023-01-19T04:30:01;2.17;;;1.67;;
35917;SDS011;22011;59.912;30.300;2023-01-19T04:32:32;2.70;;;1.88;;
35917;SDS011;22011;59.912;30.300;2023-01-19T04:34:59;2.05;;;1.77;;
35917;SDS011;22011;59.912;30.300;2023-01-19T04:37:27;2.97;;;2.25;;
35917;SDS011;22011;59.912;30.300;2023-01-19T04:39:54;2.90;;;2.22;;
35917;SDS011;22011;59.912;30.300;2023-01-19T04:42:22;3.13;;;2.35;;
35917;SDS011;22011;59.912;30.300;2023-01-19T04:44:49;3.40;;;2.67;;
35917;SDS011;22011;59.912;30.300;2023-01-19T04:47:17;3.22;;;2.63;;
35917;SDS011;22011;59.912;30.300;2023-01-19T04:49:46;4.13;;;3.33;;
35917;SDS011;22011;59.912;30.300;2023-01-19T04:52:13;3.88;;;2.90;;
35917;SDS011;22011;59.912;30.300;2023-01-19T04:54:41;4.53;;;3.40;;
35917;SDS011;22011;59.912;30.300;2023-01-19T04:57:08;4.03;;;3.17;;
35917;SDS011;22011;59.912;30.300;2023-01-19T04:59:36;2.92;;;2.65;;
35917;SDS011;22011;59.912;30.300;2023-01-19T05:02:03;4.75;;;3.45;;
35917;SDS011;22011;59.912;30.300;2023-01-19T05:04:31;3.50;;;2.78;;
35917;SDS011;22011;59.912;30.300;2023-01-19T05:06:59;3.30;;;2.10;;
35917;SDS011;22011;59.912;30.300;2023-01-19T05:09:27;3.80;;;2.70;;
35917;SDS011;22011;59.912;30.300;2023-01-19T05:11:54;4.07;;;2.58;;
35917;SDS011;22011;59.912;30.300;2023-01-19T05:14:22;2.40;;;2.10;;
35917;SDS011;22011;59.912;30.300;2023-01-19T05:16:49;6.82;;;2.47;;
35917;SDS011;22011;59.912;30.300;2023-01-19T05:19:17;5.75;;;2.67;;
35917;SDS011;22011;59.912;30.300;2023-01-19T05:21:44;3.42;;;2.53;;
35917;SDS011;22011;59.912;30.300;2023-01-19T05:24:14;5.05;;;2.97;;
35917;SDS011;22011;59.912;30.300;2023-01-19T05:26:41;3.72;;;2.78;;
35917;SDS011;22011;59.912;30.300;2023-01-19T05:29:09;4.20;;;2.58;;
35917;SDS011;22011;59.912;30.300;2023-01-19T05:31:36;4.22;;;2.80;;
35917;SDS011;22011;59.912;30.300;2023-01-19T05:34:04;3.22;;;1.98;;
35917;SDS011;22011;59.912;30.300;2023-01-19T05:36:32;3.50;;;2.50;;
35917;SDS011;22011;59.912;30.300;2023-01-19T05:38:59;2.75;;;2.22;;
35917;SDS011;22011;59.912;30.300;2023-01-19T05:41:28;3.05;;;2.30;;
35917;SDS011;22011;59.912;30.300;2023-01-19T05:43:56;3.13;;;2.28;;
35917;SDS011;22011;59.912;30.300;2023-01-19T05:46:23;4.38;;;2.45;;
35917;SDS011;22011;59.912;30.300;2023-01-19T05:48:51;4.97;;;2.15;;
35917;SDS011;22011;59.912;30.300;2023-01-19T05:51:19;4.03;;;1.60;;
35917;SDS011;22011;59.912;30.300;2023-01-19T05:53:46;2.83;;;1.80;;
35917;SDS011;22011;59.912;30.300;2023-01-19T05:56:14;3.35;;;2.03;;
35917;SDS011;22011;59.912;30.300;2023-01-19T05:58:43;3.70;;;1.90;;
35917;SDS011;22011;59.912;30.300;2023-01-19T06:01:10;3.03;;;2.08;;
35917;SDS011;22011;59.912;30.300;2023-01-19T06:03:38;5.35;;;1.88;;
35917;SDS011;22011;59.912;30.300;2023-01-19T06:06:06;5.13;;;2.20;;
35917;SDS011;22011;59.912;30.300;2023-01-19T06:08:33;4.85;;;2.38;;
35917;SDS011;22011;59.912;30.300;2023-01-19T06:11:01;4.95;;;2.20;;
35917;SDS011;22011;59.912;30.300;2023-01-19T06:16:00;3.30;;;2.20;;
35917;SDS011;22011;59.912;30.300;2023-01-19T06:18:28;6.47;;;2.40;;
35917;SDS011;22011;59.912;30.300;2023-01-19T06:20:56;4.07;;;3.25;;
35917;SDS011;22011;59.912;30.300;2023-01-19T06:23:24;5.55;;;3.75;;
35917;SDS011;22011;59.912;30.300;2023-01-19T06:25:52;5.60;;;3.72;;
35917;SDS011;22011;59.912;30.300;2023-01-19T06:28:19;6.60;;;3.83;;
35917;SDS011;22011;59.912;30.300;2023-01-19T06:30:47;6.22;;;3.50;;
35917;SDS011;22011;59.912;30.300;2023-01-19T06:33:17;4.85;;;3.47;;
35917;SDS011;22011;59.912;30.300;2023-01-19T06:35:45;6.03;;;3.80;;
35917;SDS011;22011;59.912;30.300;2023-01-19T06:38:14;6.70;;;3.33;;
35917;SDS011;22011;59.912;30.300;2023-01-19T06:40:43;3.30;;;3.00;;
35917;SDS011;22011;59.912;30.300;2023-01-19T06:43:11;4.90;;;3.38;;
35917;SDS011;22011;59.912;30.300;2023-01-19T06:45:38;4.05;;;3.38;;
35917;SDS011;22011;59.912;30.300;2023-01-19T06:48:06;5.93;;;3.08;;
35917;SDS011;22011;59.912;30.300;2023-01-19T06:50:36;4.32;;;2.95;;
35917;SDS011;22011;59.912;30.300;2023-01-19T06:53:03;12.20;;;5.10;;
35917;SDS011;22011;59.912;30.300;2023-01-19T06:55:31;8.55;;;2.80;;
35917;SDS011;22011;59.912;30.300;2023-01-19T06:58:00;5.60;;;2.67;;
35917;SDS011;22011;59.912;30.300;2023-01-19T07:00:28;3.15;;;2.67;;
35917;SDS011;22011;59.912;30.300;2023-01-19T07:02:55;4.05;;;2.70;;
35917;SDS011;22011;59.912;30.300;2023-01-19T07:05:23;5.03;;;2.53;;
35917;SDS011;22011;59.912;30.300;2023-01-19T07:07:52;2.88;;;2.22;;
35917;SDS011;22011;59.912;30.300;2023-01-19T07:10:20;2.67;;;2.22;;
35917;SDS011;22011;59.912;30.300;2023-01-19T07:12:48;3.55;;;2.08;;
35917;SDS011;22011;59.912;30.300;2023-01-19T07:15:17;3.15;;;2.00;;
35917;SDS011;22011;59.912;30.300;2023-01-19T07:17:47;3.42;;;1.83;;
35917;SDS011;22011;59.912;30.300;2023-01-19T07:20:15;2.90;;;2.33;;
35917;SDS011;22011;59.912;30.300;2023-01-19T07:22:44;5.25;;;2.45;;
35917;SDS011;22011;59.912;30.300;2023-01-19T07:25:13;4.60;;;2.78;;
35917;SDS011;22011;59.912;30.300;2023-01-19T07:27:41;6.70;;;2.08;;
35917;SDS011;22011;59.912;30.300;2023-01-19T07:30:10;4.85;;;1.73;;
35917;SDS011;22011;59.912;30.300;2023-01-19T07:32:38;8.45;;;2.00;;
35917;SDS011;22011;59.912;30.300;2023-01-19T07:35:07;2.55;;;1.80;;
35917;SDS011;22011;59.912;30.300;2023-01-19T07:37:35;1.95;;;1.70;;
35917;SDS011;22011;59.912;30.300;2023-01-19T07:40:03;3.20;;;1.80;;
35917;SDS011;22011;59.912;30.300;2023-01-19T07:42:32;7.40;;;2.60;;
35917;SDS011;22011;59.912;30.300;2023-01-19T07:45:00;2.88;;;1.90;;
35917;SDS011;22011;59.912;30.300;2023-01-19T07:47:27;4.60;;;2.00;;
35917;SDS011;22011;59.912;30.300;2023-01-19T07:49:55;3.22;;;1.85;;
35917;SDS011;22011;59.912;30.300;2023-01-19T07:52:22;3.78;;;2.05;;
35917;SDS011;22011;59.912;30.300;2023-01-19T07:54:50;5.22;;;1.70;;
35917;SDS011;22011;59.912;30.300;2023-01-19T07:57:17;4.20;;;1.92;;
35917;SDS011;22011;59.912;30.300;2023-01-19T07:59:46;5.40;;;2.28;;
35917;SDS011;22011;59.912;30.300;2023-01-19T08:02:14;4.53;;;1.48;;
35917;SDS011;22011;59.912;30.300;2023-01-19T08:04:41;3.95;;;1.70;;
35917;SDS011;22011;59.912;30.300;2023-01-19T08:07:09;7.03;;;2.17;;
35917;SDS011;22011;59.912;30.300;2023-01-19T08:09:38;7.20;;;2.50;;
35917;SDS011;22011;59.912;30.300;2023-01-19T08:12:05;3.80;;;1.90;;
35917;SDS011;22011;59.912;30.300;2023-01-19T08:14:33;3.88;;;1.65;;
35917;SDS011;22011;59.912;30.300;2023-01-19T08:17:02;6.18;;;1.77;;
35917;SDS011;22011;59.912;30.300;2023-01-19T08:19:30;4.80;;;1.25;;
35917;SDS011;22011;59.912;30.300;2023-01-19T08:21:58;2.78;;;1.33;;
35917;SDS011;22011;59.912;30.300;2023-01-19T08:24:26;1.83;;;1.20;;
35917;SDS011;22011;59.912;30.300;2023-01-19T08:26:56;3.20;;;1.38;;
35917;SDS011;22011;59.912;30.300;2023-01-19T08:31:52;4.40;;;1.25;;
35917;SDS011;22011;59.912;30.300;2023-01-19T08:34:22;8.35;;;1.58;;
35917;SDS011;22011;59.912;30.300;2023-01-19T08:36:50;2.97;;;1.20;;
35917;SDS011;22011;59.912;30.300;2023-01-19T08:39:17;3.25;;;1.73;;
35917;SDS011;22011;59.912;30.300;2023-01-19T08:41:45;5.28;;;1.52;;
35917;SDS011;22011;59.912;30.300;2023-01-19T08:44:13;5.63;;;1.30;;
35917;SDS011;22011;59.912;30.300;2023-01-19T08:46:40;2.45;;;1.40;;
35917;SDS011;22011;59.912;30.300;2023-01-19T08:49:08;6.07;;;1.60;;
35917;SDS011;22011;59.912;30.300;2023-01-19T08:51:37;3.83;;;1.60;;
35917;SDS011;22011;59.912;30.300;2023-01-19T08:54:04;8.98;;;2.00;;
35917;SDS011;22011;59.912;30.300;2023-01-19T08:56:32;12.82;;;2.00;;
35917;SDS011;22011;59.912;30.300;2023-01-19T08:58:59;9.55;;;1.92;;
35917;SDS011;22011;59.912;30.300;2023-01-19T09:01:27;11.20;;;2.50;;
35917;SDS011;22011;59.912;30.300;2023-01-19T09:03:54;3.45;;;2.50;;
35917;SDS011;22011;59.912;30.300;2023-01-19T09:06:22;6.88;;;1.98;;
35917;SDS011;22011;59.912;30.300;2023-01-19T09:08:51;3.03;;;1.05;;
35917;SDS011;22011;59.912;30.300;2023-01-19T09:11:19;1.77;;;1.05;;
35917;SDS011;22011;59.912;30.300;2023-01-19T09:13:46;4.38;;;1.42;;
35917;SDS011;22011;59.912;30.300;2023-01-19T09:16:13;2.60;;;1.20;;
35917;SDS011;22011;59.912;30.300;2023-01-19T09:18:41;3.72;;;1.42;;
35917;SDS011;22011;59.912;30.300;2023-01-19T09:21:10;2.83;;;1.27;;
35917;SDS011;22011;59.912;30.300;2023-01-19T09:23:38;5.03;;;1.10;;
35917;SDS011;22011;59.912;30.300;2023-01-19T09:26:08;7.93;;;1.42;;
35917;SDS011;22011;59.912;30.300;2023-01-19T09:28:36;11.98;;;2.10;;
35917;SDS011;22011;59.912;30.300;2023-01-19T09:31:04;4.00;;;1.23;;
35917;SDS011;22011;59.912;30.300;2023-01-19T09:33:33;2.60;;;1.58;;
35917;SDS011;22011;59.912;30.300;2023-01-19T09:36:01;4.80;;;1.80;;
35917;SDS011;22011;59.912;30.300;2023-01-19T09:38:28;3.17;;;1.70;;
35917;SDS011;22011;59.912;30.300;2023-01-19T09:40:57;6.20;;;1.75;;
35917;SDS011;22011;59.912;30.300;2023-01-19T09:43:37;4.18;;;1.40;;
35917;SDS011;22011;59.912;30.300;2023-01-19T09:46:09;5.82;;;1.73;;
35917;SDS011;22011;59.912;30.300;2023-01-19T09:48:44;5.53;;;1.38;;
35917;SDS011;22011;59.912;30.300;2023-01-19T09:51:17;2.70;;;1.50;;
35917;SDS011;22011;59.912;30.300;2023-01-19T09:53:50;1.67;;;1.10;;
35917;SDS011;22011;59.912;30.300;2023-01-19T09:56:21;1.27;;;0.80;;
35917;SDS011;22011;59.912;30.300;2023-01-19T09:58:50;5.82;;;1.50;;
35917;SDS011;22011;59.912;30.300;2023-01-19T10:10:04;1.23;;;1.13;;
35917;SDS011;22011;59.912;30.300;2023-01-19T10:15:43;2.83;;;1.50;;
35917;SDS011;22011;59.912;30.300;2023-01-19T10:18:18;2.25;;;1.27;;
35917;SDS011;22011;59.912;30.300;2023-01-19T10:20:50;4.55;;;1.58;;
35917;SDS011;22011;59.912;30.300;2023-01-19T10:23:33;3.97;;;1.60;;
35917;SDS011;22011;59.912;30.300;2023-01-19T10:26:06;3.60;;;1.58;;
35917;SDS011;22011;59.912;30.300;2023-01-19T10:28:37;1.67;;;1.17;;
35917;SDS011;22011;59.912;30.300;2023-01-19T10:31:08;1.73;;;0.80;;
35917;SDS011;22011;59.912;30.300;2023-01-19T10:33:37;11.60;;;1.55;;
35917;SDS011;22011;59.912;30.300;2023-01-19T10:36:09;7.97;;;1.02;;
35917;SDS011;22011;59.912;30.300;2023-01-19T10:38:43;1.90;;;1.10;;
35917;SDS011;22011;59.912;30.300;2023-01-19T10:41:12;2.20;;;1.20;;
35917;SDS011;22011;59.912;30.300;2023-01-19T10:43:44;4.97;;;0.93;;
35917;SDS011;22011;59.912;30.300;2023-01-19T10:46:16;8.80;;;1.50;;
35917;SDS011;22011;59.912;30.300;2023-01-19T10:48:53;2.35;;;0.95;;
35917;SDS011;22011;59.912;30.300;2023-01-19T10:51:21;2.60;;;0.65;;
35917;SDS011;22011;59.912;30.300;2023-01-19T10:53:53;1.13;;;0.80;;
35917;SDS011;22011;59.912;30.300;2023-01-19T10:56:24;2.90;;;1.25;;
35917;SDS011;22011;59.912;30.300;2023-01-19T10:58:56;3.70;;;0.80;;
35917;SDS011;22011;59.912;30.300;2023-01-19T11:01:27;2.50;;;0.57;;
35917;SDS011;22011;59.912;30.300;2023-01-19T11:03:56;0.73;;;0.50;;
35917;SDS011;22011;59.912;30.300;2023-01-19T11:06:30;3.53;;;0.55;;
35917;SDS011;22011;59.912;30.300;2023-01-19T11:09:10;7.32;;;1.00;;
35917;SDS011;22011;59.912;30.300;2023-01-19T11:11:42;1.58;;;0.60;;
35917;SDS011;22011;59.912;30.300;2023-01-19T11:14:12;5.13;;;0.93;;
35917;SDS011;22011;59.912;30.300;2023-01-19T11:16:46;3.67;;;0.52;;
35917;SDS011;22011;59.912;30.300;2023-01-19T11:19:18;1.05;;;0.43;;
35917;SDS011;22011;59.912;30.300;2023-01-19T11:21:47;5.97;;;1.00;;
35917;SDS011;22011;59.912;30.300;2023-01-19T11:24:15;3.90;;;1.10;;
35917;SDS011;22011;59.912;30.300;2023-01-19T11:26:44;4.30;;;1.33;;
35917;SDS011;22011;59.912;30.300;2023-01-19T11:31:43;7.37;;;2.10;;
35917;SDS011;22011;59.912;30.300;2023-01-19T11:34:23;9.30;;;1.63;;
35917;SDS011;22011;59.912;30.300;2023-01-19T11:36:57;8.95;;;2.42;;
35917;SDS011;22011;59.912;30.300;2023-01-19T11:39:26;5.75;;;2.30;;
35917;SDS011;22011;59.912;30.300;2023-01-19T11:41:55;7.53;;;2.17;;
35917;SDS011;22011;59.912;30.300;2023-01-19T11:44:27;14.30;;;1.83;;
35917;SDS011;22011;59.912;30.300;2023-01-19T11:46:58;3.03;;;1.50;;
35917;SDS011;22011;59.912;30.300;2023-01-19T11:49:30;5.38;;;1.70;;
35917;SDS011;22011;59.912;30.300;2023-01-19T11:52:05;8.18;;;2.30;;
35917;SDS011;22011;59.912;30.300;2023-01-19T11:54:44;10.77;;;2.00;;
35917;SDS011;22011;59.912;30.300;2023-01-19T11:57:19;4.82;;;1.77;;
35917;SDS011;22011;59.912;30.300;2023-01-19T11:59:46;3.95;;;1.48;;
35917;SDS011;22011;59.912;30.300;2023-01-19T12:02:16;5.55;;;2.03;;
35917;SDS011;22011;59.912;30.300;2023-01-19T12:04:51;7.50;;;2.13;;
35917;SDS011;22011;59.912;30.300;2023-01-19T12:07:23;7.93;;;2.38;;
35917;SDS011;22011;59.912;30.300;2023-01-19T12:10:05;9.90;;;1.95;;
35917;SDS011;22011;59.912;30.300;2023-01-19T12:12:48;6.57;;;2.67;;
35917;SDS011;22011;59.912;30.300;2023-01-19T12:15:18;5.82;;;2.13;;
35917;SDS011;22011;59.912;30.300;2023-01-19T12:17:52;12.18;;;3.13;;
35917;SDS011;22011;59.912;30.300;2023-01-19T12:20:27;10.40;;;5.53;;
35917;SDS011;22011;59.912;30.300;2023-01-19T12:23:00;17.10;;;9.10;;
35917;SDS011;22011;59.912;30.300;2023-01-19T12:25:40;17.20;;;10.10;;
35917;SDS011;22011;59.912;30.300;2023-01-19T12:28:16;12.93;;;6.35;;
35917;SDS011;22011;59.912;30.300;2023-01-19T12:33:21;8.20;;;3.47;;
35917;SDS011;22011;59.912;30.300;2023-01-19T12:36:01;5.82;;;2.38;;
35917;SDS011;22011;59.912;30.300;2023-01-19T12:38:32;7.95;;;2.30;;
35917;SDS011;22011;59.912;30.300;2023-01-19T12:41:23;3.35;;;1.63;;
35917;SDS011;22011;59.912;30.300;2023-01-19T12:46:47;8.30;;;2.00;;
35917;SDS011;22011;59.912;30.300;2023-01-19T12:49:20;9.70;;;2.08;;
35917;SDS011;22011;59.912;30.300;2023-01-19T12:51:54;17.52;;;1.40;;
35917;SDS011;22011;59.912;30.300;2023-01-19T12:54:39;8.98;;;1.98;;
35917;SDS011;22011;59.912;30.300;2023-01-19T12:57:15;5.30;;;1.35;;
35917;SDS011;22011;59.912;30.300;2023-01-19T12:59:47;7.28;;;1.63;;
35917;SDS011;22011;59.912;30.300;2023-01-19T13:05:12;0.95;;;0.63;;
35917;SDS011;22011;59.912;30.300;2023-01-19T13:08:18;9.13;;;1.00;;
35917;SDS011;22011;59.912;30.300;2023-01-19T13:10:54;1.80;;;0.93;;
35917;SDS011;22011;59.912;30.300;2023-01-19T13:16:57;2.97;;;0.82;;
35917;SDS011;22011;59.912;30.300;2023-01-19T13:19:31;6.13;;;0.90;;
35917;SDS011;22011;59.912;30.300;2023-01-19T13:25:24;1.27;;;0.50;;
35917;SDS011;22011;59.912;30.300;2023-01-19T13:27:55;3.22;;;0.88;;
35917;SDS011;22011;59.912;30.300;2023-01-19T13:30:24;2.40;;;0.98;;
35917;SDS011;22011;59.912;30.300;2023-01-19T13:35:22;3.92;;;1.20;;
35917;SDS011;22011;59.912;30.300;2023-01-19T13:37:50;3.45;;;0.45;;
35917;SDS011;22011;59.912;30.300;2023-01-19T13:40:21;1.10;;;0.77;;
35917;SDS011;22011;59.912;30.300;2023-01-19T13:42:51;2.08;;;0.50;;
35917;SDS011;22011;59.912;30.300;2023-01-19T13:45:25;2.38;;;0.68;;
35917;SDS011;22011;59.912;30.300;2023-01-19T13:47:56;1.92;;;0.80;;
35917;SDS011;22011;59.912;30.300;2023-01-19T13:50:25;2.10;;;0.50;;
35917;SDS011;22011;59.912;30.300;2023-01-19T13:52:54;1.23;;;0.63;;
35917;SDS011;22011;59.912;30.300;2023-01-19T13:55:25;1.60;;;0.82;;
35917;SDS011;22011;59.912;30.300;2023-01-19T13:57:54;1.00;;;0.90;;
35917;SDS011;22011;59.912;30.300;2023-01-19T14:00:23;1.85;;;1.00;;
35917;SDS011;22011;59.912;30.300;2023-01-19T14:02:53;3.73;;;0.60;;
35917;SDS011;22011;59.912;30.300;2023-01-19T14:05:24;1.30;;;0.80;;
35917;SDS011;22011;59.912;30.300;2023-01-19T14:08:01;3.13;;;0.95;;
35917;SDS011;22011;59.912;30.300;2023-01-19T14:10:40;2.13;;;0.95;;
35917;SDS011;22011;59.912;30.300;2023-01-19T14:13:12;3.50;;;1.15;;
35917;SDS011;22011;59.912;30.300;2023-01-19T14:15:41;1.58;;;0.90;;
35917;SDS011;22011;59.912;30.300;2023-01-19T14:18:17;6.85;;;1.50;;
35917;SDS011;22011;59.912;30.300;2023-01-19T14:20:51;10.40;;;1.90;;
35917;SDS011;22011;59.912;30.300;2023-01-19T14:26:43;5.63;;;1.40;;
35917;SDS011;22011;59.912;30.300;2023-01-19T14:29:21;8.00;;;2.08;;
35917;SDS011;22011;59.912;30.300;2023-01-19T14:31:52;5.55;;;2.20;;
35917;SDS011;22011;59.912;30.300;2023-01-19T14:34:39;8.05;;;1.40;;
35917;SDS011;22011;59.912;30.300;2023-01-19T14:37:14;2.65;;;1.50;;
35917;SDS011;22011;59.912;30.300;2023-01-19T14:39:45;2.03;;;1.70;;
35917;SDS011;22011;59.912;30.300;2023-01-19T14:42:17;1.35;;;1.15;;
35917;SDS011;22011;59.912;30.300;2023-01-19T14:44:49;3.72;;;2.00;;
35917;SDS011;22011;59.912;30.300;2023-01-19T14:47:28;4.32;;;1.73;;
35917;SDS011;22011;59.912;30.300;2023-01-19T14:50:02;4.10;;;1.92;;
35917;SDS011;22011;59.912;30.300;2023-01-19T14:52:36;5.18;;;1.98;;
35917;SDS011;22011;59.912;30.300;2023-01-19T14:55:07;5.18;;;2.70;;
35917;SDS011;22011;59.912;30.300;2023-01-19T14:57:46;3.97;;;2.33;;
35917;SDS011;22011;59.912;30.300;2023-01-19T15:02:43;4.32;;;3.33;;
35917;SDS011;22011;59.912;30.300;2023-01-19T15:05:11;7.97;;;3.85;;
35917;SDS011;22011;59.912;30.300;2023-01-19T15:07:39;5.45;;;3.70;;
35917;SDS011;22011;59.912;30.300;2023-01-19T15:10:09;4.32;;;3.58;;
35917;SDS011;22011;59.912;30.300;2023-01-19T15:12:43;8.38;;;3.72;;
35917;SDS011;22011;59.912;30.300;2023-01-19T15:15:13;4.93;;;3.10;;
35917;SDS011;22011;59.912;30.300;2023-01-19T15:17:42;3.70;;;3.25;;
35917;SDS011;22011;59.912;30.300;2023-01-19T15:20:12;4.50;;;2.88;;
35917;SDS011;22011;59.912;30.300;2023-01-19T15:22:42;3.50;;;3.05;;
35917;SDS011;22011;59.912;30.300;2023-01-19T15:25:13;2.92;;;2.60;;
35917;SDS011;22011;59.912;30.300;2023-01-19T15:27:42;4.95;;;3.30;;
35917;SDS011;22011;59.912;30.300;2023-01-19T15:30:15;3.22;;;2.70;;
35917;SDS011;22011;59.912;30.300;2023-01-19T15:32:45;4.05;;;3.33;;
35917;SDS011;22011;59.912;30.300;2023-01-19T15:35:14;4.30;;;3.15;;
35917;SDS011;22011;59.912;30.300;2023-01-19T15:37:43;3.70;;;3.08;;
35917;SDS011;22011;59.912;30.300;2023-01-19T15:40:11;6.43;;;3.55;;
35917;SDS011;22011;59.912;30.300;2023-01-19T15:42:39;5.57;;;3.10;;
35917;SDS011;22011;59.912;30.300;2023-01-19T15:45:26;4.88;;;2.88;;